Time;durP1;ratioP1;P1;durP2;ratioP2;P2;SDS_P1;SDS_P2;PMS_P1;PMS_P2;Temp;Humidity;BMP_temperature;BMP_pressure;BME280_temperature;BME280_humidity;BME280_pressure;Samples;Min_cycle;Max_cycle;Signal;HPM_P1;HPM_P2
2021/11/07 00:00:25;;;;;;;17.12;10.48;;;;;;;6.48;74.83;100781.55;1729301;82;25672;-64
2021/11/07 00:03:10;;;;;;;20.15;11.50;;;;;;;6.42;74.46;100776.73;1729117;82;25464;-64
2021/11/07 00:08:37;;;;;;;23.62;12.07;;;;;;;6.27;74.72;100774.84;1712746;83;25952;-64
2021/11/07 00:10:58;;;;;;;18.87;11.63;;;;;;;6.23;75.02;100764.89;1710438;83;25654;-63
2021/11/07 00:13:26;;;;;;;20.82;11.65;;;;;;;6.14;75.01;100771.33;1712524;83;25641;-63
2021/11/07 00:15:58;;;;;;;19.30;11.38;;;;;;;6.09;75.29;100775.35;1712876;83;25600;-64
2021/11/07 00:18:31;;;;;;;18.55;11.53;;;;;;;6.03;75.62;100767.01;1712799;83;29055;-64
2021/11/07 00:21:01;;;;;;;18.95;11.43;;;;;;;5.96;75.19;100764.06;1711953;83;25711;-64
2021/11/07 00:28:46;;;;;;;23.60;11.83;;;;;;;5.82;75.83;100750.04;1712877;83;25704;-64
2021/11/07 00:34:24;;;;;;;20.77;12.53;;;;;;;5.71;76.07;100749.22;1712737;83;25614;-64
2021/11/07 00:36:43;;;;;;;20.55;12.35;;;;;;;5.66;76.14;100743.30;1709242;83;25676;-63
2021/11/07 00:39:11;;;;;;;23.57;11.70;;;;;;;5.60;76.31;100730.92;1706818;83;25631;-64
2021/11/07 00:41:41;;;;;;;21.57;12.23;;;;;;;5.57;76.20;100734.95;1710932;83;25614;-64
2021/11/07 00:44:19;;;;;;;21.30;11.80;;;;;;;5.51;76.64;100730.64;1710478;83;26839;-64
2021/11/07 00:46:54;;;;;;;22.37;13.40;;;;;;;5.47;76.35;100729.56;1770965;80;25570;-64
2021/11/07 00:49:19;;;;;;;21.33;12.70;;;;;;;5.42;76.80;100730.89;1768681;80;25373;-64
2021/11/07 00:52:06;;;;;;;22.25;12.53;;;;;;;5.38;76.87;100732.47;1751523;80;25843;-63
2021/11/07 00:54:38;;;;;;;19.42;11.90;;;;;;;5.34;77.00;100728.71;1773452;80;25552;-64
2021/11/07 00:56:57;;;;;;;23.65;14.05;;;;;;;5.29;77.47;100736.73;1772583;80;27317;-64
2021/11/07 01:02:12;;;;;;;22.48;13.58;;;;;;;5.22;77.35;100731.07;1773027;80;25457;-64
2021/11/07 01:04:45;;;;;;;26.48;14.13;;;;;;;5.19;77.45;100724.91;1768200;80;26564;-64
2021/11/07 01:07:10;;;;;;;23.05;14.58;;;;;;;5.16;77.97;100730.80;1699926;83;25472;-64
2021/11/07 01:09:37;;;;;;;26.60;14.33;;;;;;;5.11;77.73;100720.05;1728989;82;27859;-63
2021/11/07 01:12:05;;;;;;;23.57;13.22;;;;;;;5.08;78.54;100721.11;1728907;83;25445;-63
2021/11/07 01:14:32;;;;;;;27.85;15.25;;;;;;;5.05;78.38;100713.04;1729011;83;25471;-64
2021/11/07 01:17:00;;;;;;;23.98;14.68;;;;;;;5.01;78.37;100705.26;1728953;82;26180;-63
2021/11/07 01:19:26;;;;;;;24.15;15.53;;;;;;;4.98;78.08;100698.53;1728986;82;25556;-64
2021/11/07 01:21:53;;;;;;;27.10;15.35;;;;;;;4.95;78.29;100695.02;1728963;83;27334;-63
2021/11/07 01:24:25;;;;;;;25.05;15.70;;;;;;;4.93;78.41;100695.03;1728893;83;25390;-63
2021/11/07 01:26:52;;;;;;;25.60;15.98;;;;;;;4.89;78.33;100690.72;1729208;82;25635;-64
2021/11/07 01:29:23;;;;;;;31.15;16.10;;;;;;;4.84;78.73;100683.45;1729375;82;25549;-64
2021/11/07 01:31:48;;;;;;;26.02;15.63;;;;;;;4.81;78.72;100685.31;1729158;82;25573;-64
2021/11/07 01:34:23;;;;;;;31.93;16.48;;;;;;;4.79;78.71;100681.30;1729282;83;33135;-63
2021/11/07 01:36:51;;;;;;;28.27;15.95;;;;;;;4.76;78.85;100670.55;1729357;82;25422;-63
2021/11/07 01:39:20;;;;;;;29.25;15.83;;;;;;;4.72;79.00;100659.29;1728501;82;25651;-63
2021/11/07 01:44:55;;;;;;;27.65;16.55;;;;;;;4.65;79.02;100662.20;1729274;83;25617;-64
2021/11/07 01:47:21;;;;;;;27.62;15.48;;;;;;;4.61;79.50;100658.41;1729222;82;27878;-64
2021/11/07 01:49:48;;;;;;;30.08;16.30;;;;;;;4.58;79.24;100648.20;1729162;83;25461;-64
2021/11/07 01:52:16;;;;;;;33.55;17.05;;;;;;;4.55;79.30;100640.17;1729141;83;25462;-64
2021/11/07 01:54:49;;;;;;;29.12;17.65;;;;;;;4.53;79.36;100636.95;1729081;83;25640;-64
2021/11/07 01:57:24;;;;;;;26.82;15.40;;;;;;;4.51;79.36;100644.42;1709406;83;25631;-64
2021/11/07 01:59:56;;;;;;;28.55;16.55;;;;;;;4.49;79.84;100633.99;1729083;83;27309;-63
2021/11/07 02:02:31;;;;;;;33.95;17.05;;;;;;;4.46;79.60;100638.52;1729041;82;25639;-63
2021/11/07 02:05:00;;;;;;;28.95;17.48;;;;;;;4.43;79.91;100633.67;1729068;80;25592;-62
2021/11/07 02:07:27;;;;;;;32.30;17.65;;;;;;;4.42;79.88;100628.58;1729088;83;25764;-63
2021/11/07 02:09:55;;;;;;;29.98;16.65;;;;;;;4.40;79.79;100628.03;1729117;82;25494;-63
2021/11/07 02:12:22;;;;;;;30.20;18.42;;;;;;;4.38;79.79;100625.61;1729117;83;27369;-62
2021/11/07 02:14:49;;;;;;;32.00;17.37;;;;;;;4.35;80.60;100615.95;1729093;83;25451;-62
2021/11/07 02:17:16;;;;;;;28.02;16.62;;;;;;;4.31;80.37;100617.01;1729145;82;25637;-63
2021/11/07 02:19:46;;;;;;;32.17;17.05;;;;;;;4.29;80.19;100610.56;1729036;83;25522;-63
2021/11/07 02:22:14;;;;;;;31.48;18.05;;;;;;;4.27;80.23;100611.88;1729271;82;25478;-63
2021/11/07 02:24:41;;;;;;;28.40;16.75;;;;;;;4.23;80.39;100603.56;1729075;83;27384;-65
2021/11/07 02:27:08;;;;;;;30.02;17.35;;;;;;;4.21;80.07;100599.55;1729010;82;25679;-64
2021/11/07 02:29:37;;;;;;;30.35;17.62;;;;;;;4.18;79.97;100592.81;1729114;82;25409;-64
2021/11/07 02:32:06;;;;;;;30.05;17.27;;;;;;;4.15;79.96;100589.86;1729292;82;25619;-65
2021/11/07 02:34:34;;;;;;;32.90;18.17;;;;;;;4.10;80.12;100582.59;1729236;83;25530;-64
2021/11/07 02:37:02;;;;;;;33.15;17.77;;;;;;;4.06;80.15;100578.83;1729059;83;27321;-65
2021/11/07 02:39:29;;;;;;;31.90;17.75;;;;;;;4.04;80.32;100565.70;1728938;83;25727;-65
2021/11/07 02:41:59;;;;;;;33.55;18.27;;;;;;;4.01;80.53;100559.52;1729149;83;25445;-64
2021/11/07 02:44:39;;;;;;;30.65;18.02;;;;;;;3.99;80.40;100562.20;1729032;82;25668;-64
2021/11/07 02:47:09;;;;;;;31.07;17.85;;;;;;;3.96;80.74;100560.83;1729128;83;25631;-65
2021/11/07 02:49:38;;;;;;;30.92;17.95;;;;;;;3.93;80.53;100559.99;1729044;83;27328;-64
2021/11/07 02:52:08;;;;;;;29.20;17.43;;;;;;;3.91;80.75;100564.27;1729219;83;25458;-64
2021/11/07 02:54:37;;;;;;;32.08;17.65;;;;;;;3.88;80.79;100563.98;1729056;82;25412;-65
2021/11/07 02:57:06;;;;;;;31.20;18.50;;;;;;;3.83;80.54;100559.93;1728994;83;25779;-65
2021/11/07 02:59:37;;;;;;;;;;;;;;;3.81;80.73;100539.31;1711255;83;25503;-65
2021/11/07 03:02:05;;;;;;;29.82;16.75;;;;;;;3.78;80.70;100541.16;1729106;82;27275;-64
2021/11/07 03:04:34;;;;;;;30.17;18.15;;;;;;;3.74;80.99;100550.23;1729030;83;25496;-63
2021/11/07 03:07:03;;;;;;;34.05;19.37;;;;;;;3.70;81.03;100554.50;1729056;80;25459;-63
2021/11/07 03:09:33;;;;;;;29.35;17.80;;;;;;;3.66;81.11;100555.55;1729165;82;25676;-64
2021/11/07 03:12:02;;;;;;;36.55;19.17;;;;;;;3.63;81.04;100548.56;1729111;82;25554;-64
2021/11/07 03:14:37;;;;;;;25.90;14.33;;;;;;;3.61;81.39;100548.00;1729183;83;27329;-66
2021/11/07 03:17:06;;;;;;;31.33;18.05;;;;;;;3.58;81.62;100540.50;1729001;83;25640;-65
2021/11/07 03:19:34;;;;;;;33.30;18.02;;;;;;;3.53;81.32;100530.03;1729152;83;25656;-66
2021/11/07 03:22:08;;;;;;;33.20;18.85;;;;;;;3.49;81.36;100515.56;1729010;82;25724;-65
2021/11/07 03:24:38;;;;;;;34.45;18.45;;;;;;;3.46;81.48;100517.95;1729105;83;25380;-65
2021/11/07 03:27:19;;;;;;;35.80;18.57;;;;;;;3.44;81.52;100519.53;1729153;83;27413;-66
2021/11/07 03:29:45;;;;;;;27.25;17.95;;;;;;;3.42;81.39;100525.65;1728459;82;25625;-66
2021/11/07 03:32:20;;;;;;;31.27;18.10;;;;;;;3.40;81.95;100529.66;1728518;82;25459;-66
2021/11/07 03:34:51;;;;;;;31.05;17.75;;;;;;;3.36;81.79;100527.48;1729103;82;25627;-65
2021/11/07 03:37:22;;;;;;;30.55;17.77;;;;;;;3.33;82.05;100511.94;1729075;82;25584;-65
2021/11/07 03:39:44;;;;;;;34.08;18.55;;;;;;;3.30;81.84;100504.97;1729232;82;31259;-65
2021/11/07 03:42:12;;;;;;;30.88;17.75;;;;;;;3.26;81.86;100500.66;1728954;82;25656;-65
2021/11/07 03:44:40;;;;;;;34.38;19.27;;;;;;;3.25;82.10;100492.89;1729166;82;25397;-65
2021/11/07 03:47:08;;;;;;;31.82;18.27;;;;;;;3.22;82.12;100487.55;1728981;80;26220;-65
2021/11/07 03:49:37;;;;;;;33.63;17.65;;;;;;;3.23;82.11;100489.67;1708539;83;25449;-66
2021/11/07 03:52:05;;;;;;;36.73;18.45;;;;;;;3.21;81.99;100482.45;1729025;83;27899;-66
2021/11/07 03:54:32;;;;;;;38.00;19.37;;;;;;;3.20;82.00;100475.48;1728939;83;25631;-65
2021/11/07 03:57:02;;;;;;;31.23;17.45;;;;;;;3.18;82.30;100469.88;1729107;83;25595;-66
2021/11/07 03:59:29;;;;;;;31.90;18.17;;;;;;;3.18;81.90;100459.69;1729097;83;26955;-65
2021/11/07 04:01:56;;;;;;;33.58;17.60;;;;;;;3.16;82.29;100457.27;1729033;82;25405;-66
2021/11/07 04:04:24;;;;;;;31.07;17.57;;;;;;;3.15;82.15;100457.02;1729122;83;27387;-66
2021/11/07 04:06:51;;;;;;;34.13;19.07;;;;;;;3.15;82.22;100455.67;1728946;80;25538;-66
2021/11/07 04:09:19;;;;;;;34.98;18.57;;;;;;;3.14;82.00;100454.05;1729029;83;25415;-66
2021/11/07 04:11:45;;;;;;;32.05;17.80;;;;;;;3.14;82.03;100454.59;1728990;82;25605;-66
2021/11/07 04:14:13;;;;;;;31.93;18.73;;;;;;;3.12;82.01;100454.05;1729037;83;25668;-66
2021/11/07 04:16:41;;;;;;;33.20;17.73;;;;;;;3.10;82.00;100448.13;1729000;83;27366;-66
2021/11/07 04:19:10;;;;;;;31.57;17.85;;;;;;;3.10;82.18;100450.28;1728925;82;25413;-65
2021/11/07 04:21:41;;;;;;;29.65;17.23;;;;;;;3.09;82.82;100445.20;1728988;83;25642;-66
2021/11/07 04:24:07;;;;;;;35.63;18.55;;;;;;;3.11;82.49;100448.41;1729104;82;25551;-66
2021/11/07 04:26:34;;;;;;;32.48;19.15;;;;;;;3.11;82.36;100442.53;1729124;83;25568;-66
2021/11/07 04:29:00;;;;;;;33.88;18.95;;;;;;;3.12;82.33;100434.80;1728995;80;27324;-66
2021/11/07 04:31:28;;;;;;;39.20;19.37;;;;;;;3.12;82.51;100418.76;1728926;83;25397;-66
2021/11/07 04:33:55;;;;;;;32.58;18.77;;;;;;;3.14;82.37;100409.95;1728998;83;25438;-66
2021/11/07 04:36:21;;;;;;;37.17;19.55;;;;;;;3.14;82.28;100405.14;1728965;82;25633;-66
2021/11/07 04:38:48;;;;;;;35.48;18.45;;;;;;;3.12;82.69;100409.94;1729045;82;25619;-66
2021/11/07 04:41:18;;;;;;;32.60;18.45;;;;;;;3.11;82.00;100400.30;1728926;83;27318;-66
2021/11/07 04:43:47;;;;;;;36.68;19.82;;;;;;;3.09;81.98;100400.55;1728917;82;25678;-66
2021/11/07 04:46:14;;;;;;;40.23;21.20;;;;;;;3.07;82.12;100395.20;1729229;82;25391;-66
2021/11/07 04:48:44;;;;;;;35.98;20.45;;;;;;;3.04;81.99;100403.73;1728921;82;26286;-66
2021/11/07 04:51:11;;;;;;;37.93;21.70;;;;;;;3.02;82.06;100409.33;1728386;82;25399;-66
2021/11/07 04:53:39;;;;;;;38.42;20.27;;;;;;;2.98;82.16;100403.69;1728991;83;27359;-66
2021/11/07 04:56:06;;;;;;;41.13;21.87;;;;;;;2.95;82.49;100413.55;1728890;83;25642;-66
2021/11/07 04:58:35;;;;;;;37.35;20.82;;;;;;;2.91;82.50;100403.61;1728935;81;25603;-66
2021/11/07 05:01:03;;;;;;;43.23;21.80;;;;;;;2.88;82.64;100419.64;1729162;83;25610;-66
2021/11/07 05:03:29;;;;;;;38.10;20.77;;;;;;;2.86;82.55;100405.73;1728995;82;25574;-66
2021/11/07 05:05:56;;;;;;;37.05;21.20;;;;;;;2.83;82.60;100394.73;1735735;80;27319;-65
2021/11/07 05:08:23;;;;;;;36.70;20.52;;;;;;;2.79;82.87;100389.92;1716738;83;25561;-66
2021/11/07 05:10:50;;;;;;;42.17;22.98;;;;;;;2.77;82.90;100384.53;1773001;81;25400;-64
2021/11/07 05:13:17;;;;;;;35.85;20.77;;;;;;;2.75;82.84;100383.45;1772977;81;25509;-65
2021/11/07 05:15:44;;;;;;;41.23;21.97;;;;;;;2.72;82.77;100379.95;1753383;81;25422;-65
2021/11/07 05:18:10;;;;;;;42.58;21.27;;;;;;;2.71;83.10;100374.89;1773079;81;27323;-65
2021/11/07 05:20:38;;;;;;;37.88;21.50;;;;;;;2.68;83.00;100366.84;1772854;80;25449;-65
2021/11/07 05:23:04;;;;;;;37.17;20.37;;;;;;;2.66;83.37;100357.48;1773007;80;25452;-65
2021/11/07 05:25:31;;;;;;;41.75;22.27;;;;;;;2.66;83.22;100353.48;1772908;81;25622;-65
2021/11/07 05:27:58;;;;;;;38.70;21.48;;;;;;;2.64;82.90;100349.72;1773024;81;25412;-65
2021/11/07 05:30:25;;;;;;;36.55;20.57;;;;;;;2.61;83.19;100348.35;1772997;80;27236;-66
2021/11/07 05:32:51;;;;;;;38.73;20.82;;;;;;;2.59;83.12;100349.68;1772918;80;25393;-66
2021/11/07 05:35:20;;;;;;;38.70;22.35;;;;;;;2.58;83.15;100340.05;1772942;81;25594;-65
2021/11/07 05:37:50;;;;;;;40.55;21.00;;;;;;;2.55;83.14;100337.88;1773068;81;25663;-65
2021/11/07 05:40:19;;;;;;;39.63;21.10;;;;;;;2.52;83.20;100345.88;1772990;81;25460;-65
2021/11/07 05:42:48;;;;;;;38.05;21.07;;;;;;;2.49;83.62;100339.71;1772962;80;27158;-65
2021/11/07 05:45:15;;;;;;;;;;;;;;;2.46;83.73;100338.08;1775067;80;25557;-65
2021/11/07 05:47:43;;;;;;;43.58;22.60;;;;;;;2.43;83.80;100336.70;1773011;80;25629;-65
2021/11/07 05:50:10;;;;;;;43.23;24.63;;;;;;;2.40;84.05;100335.36;1772950;81;25636;-65
2021/11/07 05:52:37;;;;;;;44.40;23.85;;;;;;;2.39;84.76;100336.95;1773008;81;25371;-65
2021/11/07 05:55:07;;;;;;;41.48;23.30;;;;;;;2.36;84.28;100328.91;1772981;81;27304;-65
2021/11/07 05:57:33;;;;;;;44.30;24.65;;;;;;;2.36;84.33;100327.56;1773005;80;33488;-66
2021/11/07 06:00:00;;;;;;;42.67;24.10;;;;;;;2.36;84.13;100332.11;1772924;81;25575;-65
2021/11/07 06:02:27;;;;;;;50.58;25.92;;;;;;;2.37;84.51;100329.73;1772940;81;25613;-65
2021/11/07 06:04:53;;;;;;;45.50;25.08;;;;;;;2.35;85.11;100328.64;1773011;81;25623;-65
2021/11/07 06:07:20;;;;;;;46.75;26.42;;;;;;;2.37;84.53;100325.72;1772838;80;27320;-65
2021/11/07 06:09:46;;;;;;;49.03;25.80;;;;;;;2.36;84.81;100314.76;1772901;80;25611;-65
2021/11/07 06:12:14;;;;;;;43.68;24.55;;;;;;;2.36;84.62;100320.89;1773098;80;25447;-65
2021/11/07 06:14:41;;;;;;;45.10;24.77;;;;;;;2.35;85.16;100309.95;1773098;80;25680;-65
2021/11/07 06:17:07;;;;;;;46.08;26.02;;;;;;;2.36;85.21;100298.74;1773130;80;25442;-65
2021/11/07 06:19:34;;;;;;;47.93;25.60;;;;;;;2.36;85.47;100307.55;1773081;80;27318;-66
2021/11/07 06:22:02;;;;;;;48.65;25.45;;;;;;;2.37;84.99;100299.83;1772983;80;25587;-66
2021/11/07 06:24:29;;;;;;;47.25;25.90;;;;;;;2.40;85.36;100308.67;1773107;80;25610;-66
2021/11/07 06:26:58;;;;;;;47.15;25.82;;;;;;;2.42;85.44;100299.87;1773065;80;25705;-66
2021/11/07 06:29:26;;;;;;;48.25;26.45;;;;;;;2.47;85.65;100301.78;1773252;80;25641;-66
2021/11/07 06:31:55;;;;;;;45.98;26.23;;;;;;;2.51;85.81;100302.08;1772200;80;27335;-65
2021/11/07 06:34:24;;;;;;;50.73;27.32;;;;;;;2.57;85.42;100302.38;1773127;80;25607;-65
2021/11/07 06:36:51;;;;;;;50.92;26.95;;;;;;;2.66;85.26;100297.39;1773088;80;25575;-65
2021/11/07 06:39:18;;;;;;;47.25;26.42;;;;;;;2.73;85.37;100297.43;1773070;80;26268;-65
2021/11/07 06:41:45;;;;;;;46.05;26.48;;;;;;;2.83;85.22;100296.70;1773169;80;25562;-65
2021/11/07 06:44:14;;;;;;;50.38;26.75;;;;;;;2.88;85.32;100291.39;1773099;80;27838;-65
2021/11/07 06:46:42;;;;;;;46.28;26.52;;;;;;;2.96;85.00;100294.92;1773149;80;25604;-66
2021/11/07 06:49:12;;;;;;;45.12;25.75;;;;;;;3.04;84.93;100288.27;1773108;80;25473;-65
2021/11/07 06:51:42;;;;;;;47.90;27.48;;;;;;;3.14;84.83;100282.19;1773101;80;25613;-64
2021/11/07 06:54:09;;;;;;;;;;;;;;;3.24;84.65;100280.91;1775755;80;25570;-63
2021/11/07 06:56:37;;;;;;;49.40;25.97;;;;;;;3.38;84.53;100281.77;1773096;80;27287;-64
2021/11/07 06:59:06;;;;;;;43.48;25.62;;;;;;;3.50;84.09;100271.65;1772995;80;25421;-64
2021/11/07 07:01:35;;;;;;;41.70;25.08;;;;;;;3.61;83.90;100261.27;1773206;80;25598;-65
2021/11/07 07:04:02;;;;;;;42.20;25.08;;;;;;;3.74;83.79;100254.05;1773205;80;26154;-65
2021/11/07 07:06:29;;;;;;;43.95;25.48;;;;;;;3.94;83.37;100257.85;1772994;80;25625;-65
2021/11/07 07:09:01;;;;;;;42.03;23.20;;;;;;;4.09;82.71;100249.84;1773169;80;27418;-65
2021/11/07 07:11:34;;;;;;;41.83;24.60;;;;;;;4.27;82.02;100263.77;1773028;80;25808;-65
2021/11/07 07:14:02;;;;;;;38.42;22.98;;;;;;;4.45;81.53;100245.03;1773240;80;25617;-65
2021/11/07 07:19:24;;;;;;;43.80;23.35;;;;;;;4.81;80.49;100253.02;1773117;80;25381;-65
2021/11/07 07:21:58;;;;;;;42.60;23.47;;;;;;;4.97;80.20;100241.20;1773466;80;27323;-65
2021/11/07 07:24:46;;;;;;;38.58;20.90;;;;;;;5.12;79.22;100248.91;1773202;80;25619;-64
2021/11/07 07:27:21;;;;;;;35.78;21.70;;;;;;;5.30;78.98;100229.54;1773876;80;25620;-65
2021/11/07 07:34:53;;;;;;;37.10;22.15;;;;;;;5.53;77.76;100228.62;1715695;83;25846;-64
2021/11/07 07:37:17;;;;;;;36.98;22.20;;;;;;;5.64;77.28;100215.42;1715752;83;25970;-64
2021/11/07 07:39:45;;;;;;;38.02;22.22;;;;;;;6.02;78.11;100209.56;1715609;82;25699;-64
2021/11/07 07:42:12;;;;;;;36.20;20.92;;;;;;;6.23;77.18;100197.58;1715582;83;25613;-64
2021/11/07 07:44:39;;;;;;;33.42;19.60;;;;;;;6.18;74.89;100200.31;1715673;82;25255;-65
2021/11/07 07:47:07;;;;;;;34.38;19.98;;;;;;;6.11;75.73;100192.58;1715584;82;27337;-64
2021/11/07 07:49:34;;;;;;;34.30;20.65;;;;;;;6.06;75.45;100185.08;1715529;83;25551;-65
2021/11/07 07:52:00;;;;;;;33.15;19.52;;;;;;;5.97;75.21;100179.52;1715640;83;25754;-64
2021/11/07 07:54:27;;;;;;;35.30;19.37;;;;;;;5.92;75.53;100179.53;1715591;83;25471;-65
2021/11/07 07:56:53;;;;;;;30.40;18.15;;;;;;;5.87;75.30;100181.70;1715651;83;25645;-65
2021/11/07 07:59:21;;;;;;;29.90;19.12;;;;;;;5.84;75.79;100168.86;1715616;83;27356;-65
2021/11/07 08:01:49;;;;;;;33.02;18.87;;;;;;;5.79;75.45;100162.98;1715548;83;25680;-65
2021/11/07 08:04:16;;;;;;;31.40;17.87;;;;;;;5.78;75.57;100167.28;1715612;83;25610;-64
2021/11/07 08:06:43;;;;;;;28.77;17.20;;;;;;;5.79;75.69;100159.51;1713870;83;26204;-64
2021/11/07 08:09:10;;;;;;;29.40;17.23;;;;;;;5.78;75.62;100150.62;1683819;83;25794;-64
2021/11/07 08:11:39;;;;;;;30.30;17.67;;;;;;;5.82;75.80;100154.11;1749804;82;27398;-65
2021/11/07 08:14:05;;;;;;;29.70;17.73;;;;;;;5.84;75.52;100164.84;1749838;81;26937;-65
2021/11/07 08:16:32;;;;;;;30.50;17.85;;;;;;;5.85;75.37;100151.66;1749807;81;25660;-65
2021/11/07 08:18:59;;;;;;;30.45;16.85;;;;;;;5.89;75.29;100164.80;1749795;82;25642;-65
2021/11/07 08:21:27;;;;;;;29.90;17.00;;;;;;;5.96;75.74;100155.91;1749809;82;25400;-65
2021/11/07 08:23:54;;;;;;;27.70;16.20;;;;;;;6.14;75.57;100154.94;1720594;82;27389;-65
2021/11/07 08:26:22;;;;;;;26.85;15.98;;;;;;;6.43;75.35;100158.16;1749718;81;25414;-65
2021/11/07 08:28:51;;;;;;;28.73;16.97;;;;;;;6.75;75.65;100146.01;1749831;82;25456;-65
2021/11/07 08:31:23;;;;;;;27.62;16.23;;;;;;;7.28;75.40;100155.28;1749691;81;27767;-65
2021/11/07 08:33:46;;;;;;;25.02;15.00;;;;;;;7.85;74.11;100141.25;1747855;82;25452;-64
2021/11/07 08:36:20;;;;;;;23.18;14.68;;;;;;;8.56;74.01;100137.62;1738973;82;27407;-65
2021/11/07 08:38:52;;;;;;;25.50;14.73;;;;;;;9.25;72.37;100121.93;1738548;81;25732;-65
2021/11/07 08:41:17;;;;;;;20.90;13.62;;;;;;;9.70;68.76;100128.71;1738720;81;25722;-65
2021/11/07 09:00:28;;;;;;;18.30;11.30;;;;;;;8.28;66.83;100074.23;1739757;82;25446;-66
2021/11/07 09:05:33;;;;;;;16.00;10.15;;;;;;;8.04;66.94;100059.60;1739666;82;25670;-65
2021/11/07 09:10:37;;;;;;;16.15;10.85;;;;;;;7.97;67.44;100061.89;1736228;82;25765;-65
2021/11/07 09:13:06;;;;;;;;;;;;;;;7.91;66.85;100052.30;1718012;82;25609;-65
2021/11/07 09:15:37;;;;;;;14.45;9.53;;;;;;;7.88;67.74;100049.63;1736476;82;27955;-64
2021/11/07 09:18:05;;;;;;;14.95;10.00;;;;;;;7.89;68.29;100048.55;1736280;82;25598;-64
2021/11/07 09:20:48;;;;;;;17.75;9.05;;;;;;;7.92;67.96;100035.05;1736350;82;25431;-65
2021/11/07 09:25:48;;;;;;;15.95;8.78;;;;;;;7.95;68.04;100031.73;1736447;82;25601;-65
2021/11/07 09:28:19;;;;;;;15.90;10.18;;;;;;;8.02;67.66;100028.13;1736452;81;28050;-66
2021/11/07 09:30:56;;;;;;;16.95;9.10;;;;;;;8.07;67.48;100025.88;1735933;82;25643;-66
2021/11/07 09:43:52;;;;;;;12.65;8.50;;;;;;;8.22;66.39;100010.75;1610856;87;25748;-66
2021/11/07 09:46:32;;;;;;;;;;;;;;;8.21;65.60;99993.80;1647287;85;25830;-65
2021/11/07 09:48:54;;;;;;;15.53;8.45;;;;;;;8.25;64.85;99993.20;1654698;84;26380;-66
2021/11/07 09:51:21;;;;;;;13.98;8.33;;;;;;;8.24;65.60;99984.33;1650286;86;25677;-65
2021/11/07 09:53:51;;;;;;;15.30;8.73;;;;;;;8.22;64.93;99981.94;1664248;86;27376;-65
2021/11/07 09:56:18;;;;;;;13.00;8.95;;;;;;;8.28;66.33;99985.87;1646015;86;25666;-65
2021/11/07 09:58:47;;;;;;;14.83;8.65;;;;;;;8.59;65.80;99984.70;1653933;86;25670;-65
2021/11/07 10:01:13;;;;;;;12.80;8.30;;;;;;;8.87;63.44;99967.09;1656356;86;25714;-66
2021/11/07 10:03:41;;;;;;;12.30;7.97;;;;;;;9.28;63.05;99981.77;1643906;86;25880;-65
2021/11/07 10:06:30;;;;;;;16.50;9.00;;;;;;;9.35;61.77;99959.74;1639004;87;26609;-66
2021/11/07 10:08:59;;;;;;;;;;;;;;;9.25;61.40;99954.61;1640775;87;25749;-66
2021/11/07 10:11:31;;;;;;;11.33;7.92;;;;;;;9.21;62.56;99945.52;1610540;89;25735;-66
2021/11/07 10:14:14;;;;;;;10.30;7.80;;;;;;;9.21;62.08;99949.56;1637043;87;25761;-66
2021/11/07 10:16:50;;;;;;;13.40;8.55;;;;;;;9.16;62.65;99946.45;1637681;87;25588;-66
2021/11/07 10:19:29;;;;;;;13.08;7.67;;;;;;;9.06;61.89;99936.70;1653543;86;28036;-66
2021/11/07 10:21:52;;;;;;;13.48;7.90;;;;;;;8.98;62.79;99920.69;1684828;85;25973;-65
2021/11/07 10:24:28;;;;;;;14.15;8.13;;;;;;;8.94;61.69;99926.47;1698411;84;25627;-65
2021/11/07 10:27:10;;;;;;;11.93;7.28;;;;;;;8.87;61.34;99918.01;1722197;83;25696;-65
2021/11/07 10:29:45;;;;;;;12.33;7.53;;;;;;;8.86;62.48;99911.01;1722495;83;25797;-65
2021/11/07 10:32:29;;;;;;;12.37;7.35;;;;;;;8.93;61.04;99907.88;1721996;83;27353;-66
2021/11/07 10:35:38;;;;;;;11.22;7.40;;;;;;;9.18;62.30;99898.37;1717323;83;25872;-66
2021/11/07 10:38:06;;;;;;;16.23;7.72;;;;;;;9.36;61.41;99885.74;1711165;83;25587;-65
2021/11/07 10:40:34;;;;;;;11.03;7.10;;;;;;;9.42;60.64;99893.17;1711264;83;25838;-66
2021/11/07 10:45:56;;;;;;;10.68;7.40;;;;;;;10.01;60.01;99886.13;1712910;83;28023;-66
2021/11/07 10:48:26;;;;;;;13.00;7.40;;;;;;;10.07;58.76;99876.20;1710605;83;25693;-65
2021/11/07 10:53:53;;;;;;;12.00;7.62;;;;;;;9.81;59.04;99874.81;1712901;83;27755;-66
2021/11/07 10:56:18;;;;;;;12.10;8.03;;;;;;;9.70;59.51;99867.55;1712823;83;25503;-65
2021/11/07 10:58:46;;;;;;;12.90;7.95;;;;;;;9.63;58.72;99867.19;1712882;83;27578;-65
2021/11/07 11:01:19;;;;;;;10.98;7.55;;;;;;;9.58;58.35;99859.80;1676106;85;25651;-66
2021/11/07 11:03:59;;;;;;;10.20;8.08;;;;;;;9.54;60.00;99862.33;1661237;86;25605;-65
2021/11/07 11:06:23;;;;;;;14.20;7.92;;;;;;;9.51;58.92;99857.55;1682226;82;26186;-65
2021/11/07 11:09:00;;;;;;;10.20;7.33;;;;;;;9.52;60.09;99830.23;1704235;84;25717;-65
2021/11/07 11:14:09;;;;;;;9.73;7.65;;;;;;;9.52;58.57;99830.80;1704124;84;25396;-65
2021/11/07 11:27:17;;;;;;;11.85;7.83;;;;;;;9.34;58.39;99806.42;1704231;84;25695;-66
2021/11/07 11:29:59;;;;;;;12.58;8.13;;;;;;;9.36;58.57;99820.96;1703340;84;25640;-65
2021/11/07 11:34:59;;;;;;;10.58;7.65;;;;;;;9.51;59.10;99813.00;1689514;83;25633;-65
2021/11/07 11:42:31;;;;;;;11.93;7.17;;;;;;;9.51;59.07;99800.29;1622897;88;25682;-65
2021/11/07 11:44:54;;;;;;;12.50;8.03;;;;;;;9.45;58.88;99808.31;1621884;88;25668;-63
2021/11/07 11:47:57;;;;;;;11.33;6.67;;;;;;;9.39;59.38;99800.66;1619573;88;25674;-63
2021/11/07 11:50:35;;;;;;;12.20;7.80;;;;;;;9.30;59.49;99793.33;1614838;88;29527;-64
2021/11/07 11:53:16;;;;;;;11.60;7.90;;;;;;;9.25;58.42;99790.77;1612496;88;25789;-64
2021/11/07 11:58:22;;;;;;;11.43;7.15;;;;;;;9.16;59.93;99764.32;1633123;87;25893;-64
2021/11/07 12:00:59;;;;;;;11.08;7.12;;;;;;;9.15;59.23;99756.76;1618919;87;25717;-64
2021/11/07 12:06:34;;;;;;;9.73;6.78;;;;;;;9.19;60.12;99750.73;1615965;88;25659;-65
2021/11/07 12:09:50;;;;;;;11.35;6.90;;;;;;;9.18;59.64;99749.14;1615965;88;25871;-64
2021/11/07 12:12:16;;;;;;;10.30;6.33;;;;;;;9.19;60.50;99748.05;1614724;88;25846;-66
2021/11/07 12:15:26;;;;;;;11.03;7.47;;;;;;;9.22;60.26;99752.82;1616132;88;25757;-65
2021/11/07 12:17:46;;;;;;;9.13;6.17;;;;;;;9.22;60.02;99739.33;1616772;87;27258;-65
2021/11/07 12:20:30;;;;;;;8.60;5.80;;;;;;;9.18;58.40;99745.91;1652896;85;25713;-65
2021/11/07 12:23:30;;;;;;;10.63;5.97;;;;;;;9.18;59.79;99735.64;1694867;84;25621;-66
2021/11/07 12:25:56;;;;;;;10.78;5.87;;;;;;;9.16;59.65;99731.38;1698513;84;25683;-67
2021/11/07 12:28:43;;;;;;;9.53;6.12;;;;;;;9.19;60.37;99736.69;1698625;84;25625;-66
2021/11/07 12:31:10;;;;;;;9.08;6.20;;;;;;;9.18;59.95;99731.06;1702526;84;28026;-67
2021/11/07 12:33:59;;;;;;;10.82;6.78;;;;;;;9.15;60.31;99718.98;1708064;84;25765;-66
2021/11/07 12:41:39;;;;;;;11.80;6.78;;;;;;;9.10;60.15;99709.69;1729079;83;25791;-67
2021/11/07 12:44:07;;;;;;;10.98;6.62;;;;;;;9.07;60.16;99710.30;1754353;81;27395;-67
2021/11/07 12:47:10;;;;;;;8.33;6.08;;;;;;;9.07;60.52;99696.03;1753867;81;25684;-65
2021/11/07 12:49:17;;;;;;;;;;;;;;;9.07;60.80;99704.13;1749589;81;25678;-68
2021/11/07 12:52:07;;;;;;;7.37;5.47;;;;;;;9.07;60.79;99698.73;1754550;81;25612;-67
2021/11/07 12:54:40;;;;;;;11.53;6.53;;;;;;;9.06;60.47;99701.98;1754522;81;25381;-67
2021/11/07 12:57:19;;;;;;;10.75;6.15;;;;;;;9.06;60.78;99686.33;1754531;81;28090;-67
2021/11/07 12:59:51;;;;;;;9.03;5.87;;;;;;;9.05;61.00;99687.45;1716026;83;25871;-67
2021/11/07 13:02:31;;;;;;;8.68;5.95;;;;;;;9.04;61.19;99684.51;1687127;83;26277;-68
2021/11/07 13:05:24;;;;;;;8.33;6.15;;;;;;;9.02;61.00;99682.69;1722995;81;25730;-67
2021/11/07 13:08:00;;;;;;;9.53;6.35;;;;;;;9.04;60.97;99689.91;1697481;83;25442;-65
2021/11/07 13:13:10;;;;;;;9.33;5.85;;;;;;;9.07;61.59;99675.23;1697912;84;25726;-66
2021/11/07 13:18:42;;;;;;;8.85;6.53;;;;;;;9.07;61.44;99677.93;1715845;83;25743;-67
2021/11/07 13:34:24;;;;;;;9.90;6.28;;;;;;;8.96;60.28;99686.09;1662271;86;25869;-66